M I D A S
Marine Information and Data Acquisition System
Tripno 811 of the Zeeleeuw from 2004-11-23 08:13:38 to 2004-11-23 15:31:57
Back to CruiseResearch ActivitiesStationsMapUnderway DataData graphs

EquipmentUnitsComment
TimeDGPSUTC
LatitudeDGPSDM.mWGS84
LongitudeDGPSDM.mWGS84
HeadingGyrodeg 
SOGDGPSknotsSpeed over ground
COGDGPSdegCourse over ground
DepthEcho soundermeters200 kHz
Missing or incorrect values are displayed as -999
Navigation data collected by the RV Zeeleeuw from 2004-11-23 06:49:41 to 2004-11-23 15:42:07
Time Latitude Longitude Heading SOG COG Depth
2004-11-23 06:50:46 51°13.616 2°56.063 126.3   36 -999
2004-11-23 06:51:46 51°13.617 2°56.063 126.3   212 -999
2004-11-23 06:52:46 51°13.618 2°56.063 126.3   34 -999
2004-11-23 06:53:46 51°13.618 2°56.062 126.3   16 -999
2004-11-23 06:54:46 51°13.617 2°56.061 126.3   143 -999
2004-11-23 06:55:46 51°13.618 2°56.06 126.3   222 -999
2004-11-23 06:56:46 51°13.618 2°56.06 126.3   178 -999
2004-11-23 06:57:46 51°13.617 2°56.06 126.2   215 -999
2004-11-23 06:58:46 51°13.617 2°56.06 126.2   122 -999
2004-11-23 06:59:46 51°13.618 2°56.06 126.2   59 -999
2004-11-23 07:00:45 51°13.619 2°56.06 126.2   225 -999
2004-11-23 07:01:46 51°13.619 2°56.06 126.2   250 -999
2004-11-23 07:02:45 51°13.619 2°56.06 126.1   36 -999
2004-11-23 07:03:45 51°13.62 2°56.059 126.1   189 -999
2004-11-23 07:04:46 51°13.62 2°56.06 126   294 -999
2004-11-23 07:05:46 51°13.619 2°56.06 126   263 -999
2004-11-23 07:06:46 51°13.618 2°56.06 125.9   220 -999
2004-11-23 07:07:46 51°13.618 2°56.06 125.9   198 -999
2004-11-23 07:08:46 51°13.618 2°56.06 125.8   303 -999
2004-11-23 07:09:46 51°13.618 2°56.059 125.7   256 -999
2004-11-23 07:10:46 51°13.618 2°56.06 125.7   293 -999
2004-11-23 07:11:46 51°13.619 2°56.06 125.7   74 -999
2004-11-23 07:12:46 51°13.619 2°56.06 125.7   6 -999
2004-11-23 07:13:46 51°13.619 2°56.06 125.6   49 -999
2004-11-23 07:14:46 51°13.619 2°56.06 125.6   283 -999
2004-11-23 07:15:45 51°13.619 2°56.059 125.6   18 -999
2004-11-23 07:16:46 51°13.616 2°56.059 125.6   339 -999
2004-11-23 07:17:45 51°13.618 2°56.059 125.6   18 -999
2004-11-23 07:18:46 51°13.618 2°56.06 125.6   332 -999
2004-11-23 07:19:45 51°13.619 2°56.06 125.6   81 -999
2004-11-23 07:20:46 51°13.619 2°56.06 125.7   224 -999
2004-11-23 07:21:46 51°13.619 2°56.06 125.7   343 -999
2004-11-23 07:22:45 51°13.618 2°56.06 125.7   2 -999
2004-11-23 07:23:45 51°13.618 2°56.06 125.7   52 -999
2004-11-23 07:24:45 51°13.618 2°56.06 125.7   353 -999
2004-11-23 07:25:46 51°13.62 2°56.063 125.7   259 -999
2004-11-23 07:26:45 51°13.622 2°56.061 125.6   317 -999
2004-11-23 07:27:45 51°13.62 2°56.061 125.6   12 -999
2004-11-23 07:28:46 51°13.619 2°56.061 125.6   325 -999
2004-11-23 07:29:46 51°13.617 2°56.061 125.6   351 -999
2004-11-23 07:30:57 51°13.617 2°56.061 125.7   306 -999
2004-11-23 07:32:25 51°13.618 2°56.061 125.7   3 9.2
2004-11-23 07:33:25 51°13.621 2°56.061 125.7   357 9.2
2004-11-23 07:34:26 51°13.62 2°56.06 125.7   337 9.3
2004-11-23 07:35:24 51°13.62 2°56.06 125.7   254 9.3
2004-11-23 07:36:36 51°13.618 2°56.06 125.7   192 9.3
2004-11-23 07:37:36 51°13.619 2°56.06 125.7   263 9.3
2004-11-23 07:38:43 51°13.617 2°56.06 125.7   235 9.4
2004-11-23 07:39:52 51°13.617 2°56.059 125.7   326 9.3
2004-11-23 07:41:00 51°13.617 2°56.06 125.9   173 9.3
2004-11-23 07:42:14 51°13.618 2°56.061 125.8   228 9.3
2004-11-23 07:43:26 51°13.618 2°56.061 125.9   235 9.4
2004-11-23 07:44:28 51°13.618 2°56.061 125.9   273 9.5
2004-11-23 07:45:31 51°13.617 2°56.061 125.9   18 9.4
2004-11-23 07:46:42 51°13.618 2°56.061 125.9   357 9.5
2004-11-23 07:47:50 51°13.619 2°56.061 125.9   14 9.4
2004-11-23 07:49:16 51°13.618 2°56.061 126   9 9.4
2004-11-23 07:50:33 51°13.618 2°56.061 126.1   31 9.5
2004-11-23 07:51:46 51°13.618 2°56.06 126.1   11 9.5
2004-11-23 07:52:46 51°13.617 2°56.06 126.1   352 9.5
2004-11-23 07:53:45 51°13.617 2°56.06 126.1   333 9.5
2004-11-23 07:54:46 51°13.616 2°56.06 126.1   29 9.5
2004-11-23 07:56:00 51°13.616 2°56.06 126.2   1 9.6
2004-11-23 07:57:02 51°13.617 2°56.061 126.2   12 9.6
2004-11-23 07:58:16 51°13.617 2°56.06 126.2   17 9.6
2004-11-23 07:59:13 51°13.618 2°56.061 126.2   358 9.6
2004-11-23 08:00:24 51°13.618 2°56.061 126.2   4 9.7
2004-11-23 08:01:54 51°13.618 2°56.061 126.3   3 9.7
2004-11-23 08:03:08 51°13.618 2°56.06 126.4   319 9.7
2004-11-23 08:04:05 51°13.619 2°56.061 126.4   344 9.7
2004-11-23 08:05:28 51°13.62 2°56.06 126.4   20 9.8
2004-11-23 08:06:28 51°13.62 2°56.06 126.4   4 9.7
2004-11-23 08:07:27 51°13.62 2°56.06 126.4   11 9.8
2004-11-23 08:08:49 51°13.619 2°56.061 126.4   20 9.8
2004-11-23 08:10:41 51°13.618 2°56.061 125.6   102 10
2004-11-23 08:11:50 51°13.617 2°56.062 125.7   25 9.9
2004-11-23 08:12:55 51°13.617 2°56.062 127 0.1 59 9.9
2004-11-23 08:14:10 51°13.619 2°56.048 111 1.9 292 10.9
2004-11-23 08:15:17 51°13.63 2°55.994 112 0.8 284 -999
2004-11-23 08:16:39 51°13.598 2°56.061 138.7 3.7 133 12.4
2004-11-23 08:18:09 51°13.54 2°56.175 114.4 3.8 104 12.5
2004-11-23 08:19:34 51°13.534 2°56.21 52.3 0.4 48 -999
2004-11-23 08:20:52 51°13.543 2°56.216 355.5 1 2 -999
2004-11-23 08:22:01 51°13.544 2°56.21 309.8 2.7 307 -999
2004-11-23 08:23:09 51°13.558 2°56.137 290.7 2.7 285 12.2
2004-11-23 08:24:29 51°13.583 2°56.061 309.1 2.6 305 12.8
2004-11-23 08:25:49 51°13.65 2°55.916 310.4 6.8 306 12.1
2004-11-23 08:26:59 51°13.743 2°55.733 318.6 7.9 312 12.8
2004-11-23 08:27:59 51°13.853 2°55.615 338.6 8.2 335 -999
2004-11-23 08:29:23 51°14.023 2°55.494 340.9 7.9 336 13.2
2004-11-23 08:30:37 51°14.181 2°55.374 335 9.4 330 12.9
2004-11-23 08:32:11 51°14.367 2°55.058 314.7 11.3 312 13.2
2004-11-23 08:33:42 51°14.626 2°54.818 333.4 12.3 333 12.1
2004-11-23 08:35:24 51°14.954 2°54.551 334.3 13 333 11.5
2004-11-23 08:36:33 51°15.175 2°54.367 332 13.1 333 11.2
2004-11-23 08:37:38 51°15.381 2°54.185 333.1 13.2 332 11.8
2004-11-23 08:38:45 51°15.595 2°54.008 333.3 13 333 12.8
2004-11-23 08:39:45 51°15.786 2°53.844 332.3 12.9 331 13.8
2004-11-23 08:41:25 51°16.104 2°53.58 333.1 12.9 333 14.4
2004-11-23 08:42:27 51°16.301 2°53.413 333 13 332 14.9
2004-11-23 08:43:57 51°16.587 2°53.174 333.1 12.9 333 14.7
2004-11-23 08:45:07 51°16.809 2°52.986 332.8 13 331 12.9
2004-11-23 08:46:09 51°17.004 2°52.818 332.8 13 331 12.3
2004-11-23 08:47:21 51°17.233 2°52.629 333.3 12.7 331 12.3
2004-11-23 08:48:23 51°17.396 2°52.402 312.5 12.7 309 13
2004-11-23 08:49:27 51°17.535 2°52.12 309.4 12.8 307 13.3
2004-11-23 08:50:43 51°17.698 2°51.785 309.2 12.8 309 13.1
2004-11-23 08:51:57 51°17.857 2°51.457 308.8 12.7 309 13.1
2004-11-23 08:52:55 51°17.981 2°51.198 308.4 12.8 306 14.4
2004-11-23 08:54:13 51°18.15 2°50.848 310.2 12.9 307 15.8
2004-11-23 08:55:17 51°18.283 2°50.555 309 12.9 304 16.7
2004-11-23 08:56:47 51°18.475 2°50.14 309.1 13 307 16.9
2004-11-23 08:58:21 51°18.677 2°49.713 309.5 12.9 308 14.7
2004-11-23 08:59:42 51°18.839 2°49.341 304.6 12.6 304 13.6
2004-11-23 09:00:41 51°18.956 2°49.067 305.3 12.8 304 14.8
2004-11-23 09:01:42 51°19.073 2°48.785 305 12.5 304 17.6
2004-11-23 09:03:25 51°19.272 2°48.306 303.8 12.8 302 20.9
2004-11-23 09:04:29 51°19.395 2°48.002 304.8 12.8 303 23.2
2004-11-23 09:05:36 51°19.522 2°47.679 304.6 12.9 302 24.7
2004-11-23 09:06:35 51°19.636 2°47.396 305.5 12.8 304 24.7
2004-11-23 09:07:50 51°19.782 2°47.042 304.9 12.7 304 23.9
2004-11-23 09:08:49 51°19.866 2°46.742 292 12.5 289 22.1
2004-11-23 09:09:55 51°19.929 2°46.397 280.8 12.1 280 18.4
2004-11-23 09:10:55 51°19.958 2°46.077 280.8 12.1 276 17
2004-11-23 09:12:03 51°19.994 2°45.712 281.2 12.3 279 16.9
2004-11-23 09:13:03 51°20.029 2°45.39 281.4 12.5 282 24.3
2004-11-23 09:14:17 51°20.076 2°44.986 281.8 12.4 280 26.5
2004-11-23 09:15:19 51°20.115 2°44.648 281.8 12.6 280 27.1
2004-11-23 09:16:29 51°20.16 2°44.265 282.3 12.6 281 27.8
2004-11-23 09:17:29 51°20.197 2°43.938 282.4 12.6 280 29.5
2004-11-23 09:18:55 51°20.252 2°43.466 281.7 12.6 282 30
2004-11-23 09:20:03 51°20.299 2°43.098 282.3 12.4 282 29.2
2004-11-23 09:21:09 51°20.343 2°42.743 280.2 12.5 278 27.4
2004-11-23 09:22:09 51°20.366 2°42.42 277.9 12.3 277 23.6
2004-11-23 09:23:15 51°20.393 2°42.065 277.6 12.2 276 20.4
2004-11-23 09:25:03 51°20.442 2°41.492 278.8 12.1 280 23.1
2004-11-23 09:26:09 51°20.475 2°41.141 278.5 12.1 278 29.8
2004-11-23 09:27:31 51°20.517 2°40.699 278.1 12.5 280 30.6
2004-11-23 09:28:32 51°20.548 2°40.369 278.1 12.4 278 30.8
2004-11-23 09:29:54 51°20.588 2°39.923 278 12.4 279 29.3
2004-11-23 09:31:04 51°20.623 2°39.546 277.3 12.4 279 28.7
2004-11-23 09:33:07 51°20.688 2°38.884 278.3 12.3 278 28
2004-11-23 09:34:19 51°20.725 2°38.501 278.1 12.2 280 27.3
2004-11-23 09:35:39 51°20.767 2°38.077 278.4 12.1 279 26.7
2004-11-23 09:36:37 51°20.798 2°37.771 279.1 12 279 26.6
2004-11-23 09:38:00 51°20.845 2°37.332 277.9 12.2 280 27.2
2004-11-23 09:39:26 51°20.893 2°36.88 278.2 12 281 24.2
2004-11-23 09:40:27 51°20.927 2°36.562 278.2 12 279 27.4
2004-11-23 09:41:33 51°20.966 2°36.215 279.9 12 281 27.9
2004-11-23 09:42:58 51°21.019 2°35.766 278.7 12.1 278 31
2004-11-23 09:45:02 51°21.123 2°35.112 283.6 12.3 286 35
2004-11-23 09:46:04 51°21.182 2°34.787 283 12.3 287 35.2
2004-11-23 09:47:17 51°21.251 2°34.407 284 12.3 287 33.9
2004-11-23 09:48:29 51°21.318 2°34.03 283.4 12.3 286 35.4
2004-11-23 09:50:05 51°21.405 2°33.525 283.5 12.4 285 33.5
2004-11-23 09:51:05 51°21.458 2°33.208 283.8 12.3 285 30
2004-11-23 09:52:28 51°21.584 2°32.818 323.2 12.7 329 25.2
2004-11-23 09:53:51 51°21.888 2°32.872 23.7 14.1 23 28.6
2004-11-23 09:54:57 51°22.119 2°33.061 26.5 14.1 26 33.2
2004-11-23 09:55:57 51°22.33 2°33.24 26.3 14.3 28 33.7
2004-11-23 09:57:27 51°22.66 2°33.367 353.4 13.3 355 34.5
2004-11-23 09:58:27 51°22.823 2°33.171 300.7 12.3 296 35.1
2004-11-23 09:59:25 51°22.885 2°32.87 280.3 12.5 280 34
2004-11-23 10:00:40 51°22.88 2°32.471 262.9 12 262 33.2
2004-11-23 10:02:08 51°22.86 2°32.005 266.9 12.3 270 31.8
2004-11-23 10:03:25 51°22.855 2°31.596 269.5 12.1 269 34
2004-11-23 10:05:23 51°22.849 2°30.969 269.1 12.1 268 32.4
2004-11-23 10:07:15 51°22.841 2°30.372 269 12 269 35.4
2004-11-23 10:08:17 51°22.838 2°30.038 270 12.1 270 35.7
2004-11-23 10:09:16 51°22.837 2°29.72 269.1 11.9 269 35.7
2004-11-23 10:10:16 51°22.82 2°29.401 263.1 12.1 263 36.2
2004-11-23 10:11:28 51°22.792 2°29.019 263.8 12.3 262 37.5
2004-11-23 10:12:59 51°22.752 2°28.532 262.7 12.1 261 36.7
2004-11-23 10:14:17 51°22.717 2°28.113 263.5 12.5 261 37.4
2004-11-23 10:15:55 51°22.672 2°27.593 262.7 12 262 38.8
2004-11-23 10:16:53 51°22.647 2°27.286 263.4 11.9 261 37.2
2004-11-23 10:18:15 51°22.616 2°26.849 268.4 12.4 270 36.5
2004-11-23 10:19:16 51°22.611 2°26.519 271.1 12.2 272 36
2004-11-23 10:20:29 51°22.614 2°26.13 280.4 12.2 285 31.5
2004-11-23 10:21:35 51°22.653 2°25.783 281.3 12.1 279 23.8
2004-11-23 10:23:09 51°22.717 2°25.287 283 12.3 284 30.4
2004-11-23 10:24:58 51°22.804 2°24.709 283.2 12.3 284 36.8
2004-11-23 10:26:33 51°22.882 2°24.203 284.5 12.6 287 36.7
2004-11-23 10:27:34 51°22.932 2°23.879 283.5 12.5 284 38.5
2004-11-23 10:28:47 51°22.991 2°23.49 283.5 12.4 284 40.2
2004-11-23 10:30:37 51°23.077 2°22.898 282.7 12.7 283 35
2004-11-23 10:31:40 51°23.127 2°22.559 283.4 12.4 283 33.1
2004-11-23 10:33:27 51°23.214 2°21.986 282.2 12.4 283 34.1
2004-11-23 10:34:49 51°23.284 2°21.549 282.9 12.4 284 34.5
2004-11-23 10:35:49 51°23.351 2°21.236 289.9 12.5 289 35.1
2004-11-23 10:37:17 51°23.477 2°20.785 295.1 12.6 296 36.7
2004-11-23 10:38:19 51°23.585 2°20.48 301.8 12.7 303 36.5
2004-11-23 10:40:09 51°23.837 2°19.998 317.9 12.8 314 27.1
2004-11-23 10:41:43 51°24.127 2°19.71 335.9 13.2 337 14.3
2004-11-23 10:42:50 51°24.366 2°19.586 341.1 13.6 342 26.8
2004-11-23 10:43:50 51°24.587 2°19.478 340.7 13.9 341 33.8
2004-11-23 10:45:17 51°24.906 2°19.313 341.2 13.9 342 40.1
2004-11-23 10:46:18 51°25.13 2°19.197 340.2 14.1 342 38.6
2004-11-23 10:47:19 51°25.353 2°19.081 339.8 13.8 343 38.2
2004-11-23 10:48:43 51°25.663 2°18.925 339.2 13.9 342 35.9
2004-11-23 10:49:46 51°25.894 2°18.805 339 13.8 342 25.2
2004-11-23 10:51:04 51°26.18 2°18.646 338.8 13.9 339 18.9
2004-11-23 10:52:33 51°26.508 2°18.467 339.6 14 343 26.5
2004-11-23 10:53:58 51°26.822 2°18.3 338.2 14 339 35.5
2004-11-23 10:54:59 51°27.047 2°18.18 338.4 14.3 338 38.3
2004-11-23 10:56:23 51°27.359 2°18.03 340.9 13.8 344 40.6
2004-11-23 10:57:50 51°27.683 2°17.879 341.8 14 344 43.9
2004-11-23 10:59:07 51°27.972 2°17.75 341.7 13.9 345 40.3
2004-11-23 11:00:20 51°28.246 2°17.623 340.4 14.1 341 38.2
2004-11-23 11:01:37 51°28.532 2°17.487 341.8 13.9 344 37.3
2004-11-23 11:02:37 51°28.755 2°17.38 341.8 14 343 33.7
2004-11-23 11:03:37 51°28.977 2°17.271 343.6 14.1 347 29
2004-11-23 11:04:35 51°29.19 2°17.159 340.1 14 344 28.2
2004-11-23 11:05:36 51°29.417 2°17.048 341.4 14 343 33.8
2004-11-23 11:06:37 51°29.645 2°16.942 341.8 13.9 344 42.4
2004-11-23 11:07:37 51°29.866 2°16.838 341.5 14 346 42.8
2004-11-23 11:08:40 51°30.102 2°16.729 341.2 14.1 343 42
2004-11-23 11:09:51 51°30.369 2°16.605 340.4 14.2 343 40.2
2004-11-23 11:11:09 51°30.661 2°16.468 340.8 14 346 38.5
2004-11-23 11:12:07 51°30.876 2°16.366 340.5 13.9 341 39
2004-11-23 11:13:09 51°31.104 2°16.255 340.8 14 340 38.7
2004-11-23 11:14:09 51°31.327 2°16.143 341.7 14.2 345 37.6
2004-11-23 11:15:09 51°31.549 2°16.036 341.1 14.1 345 38.6
2004-11-23 11:16:27 51°31.837 2°15.897 341 13.9 342 38.3
2004-11-23 11:17:34 51°32.088 2°15.776 341.4 14.2 344 38.4
2004-11-23 11:18:40 51°32.336 2°15.658 340.8 14.2 344 40.8
2004-11-23 11:19:49 51°32.596 2°15.535 340.4 14.1 343 44.5
2004-11-23 11:20:49 51°32.822 2°15.426 341.2 14.2 343 43.7
2004-11-23 11:21:49 51°33.048 2°15.316 342 14.2 345 41.7
2004-11-23 11:22:59 51°33.31 2°15.18 341.4 14.1 342 39.7
2004-11-23 11:24:13 51°33.594 2°15.098 6.6 14.4 7 29.6
2004-11-23 11:25:13 51°33.808 2°15.261 36.8 14.5 33 32.9
2004-11-23 11:26:12 51°34 2°15.488 41.7 14.8 38 36
2004-11-23 11:27:11 51°34.186 2°15.73 44.9 14.5 40 35.7
2004-11-23 11:28:17 51°34.391 2°16.013 44.5 14.9 40 32.5
2004-11-23 11:29:21 51°34.586 2°16.289 47.9 14.8 42 30.9
2004-11-23 11:30:21 51°34.77 2°16.552 47.9 14.7 42 31.6
2004-11-23 11:31:22 51°34.955 2°16.819 46.1 14.6 42 31.6
2004-11-23 11:32:43 51°35.205 2°17.171 46.7 14.8 42 32.9
2004-11-23 11:33:43 51°35.382 2°17.43 48.6 14.7 43 32.3
2004-11-23 11:35:03 51°35.625 2°17.778 46.9 14.9 42 31.3
2004-11-23 11:36:11 51°35.831 2°18.074 48.1 14.5 40 37.8
2004-11-23 11:37:13 51°36.018 2°18.341 47.3 14.9 42 37
2004-11-23 11:38:11 51°36.194 2°18.591 46.8 14.6 41 38.8
2004-11-23 11:39:13 51°36.381 2°18.861 47.3 14.6 42 40.1
2004-11-23 11:40:12 51°36.558 2°19.115 45.1 14.4 40 39.6
2004-11-23 11:41:19 51°36.767 2°19.39 44.5 14.6 40 42.1
2004-11-23 11:42:21 51°36.961 2°19.647 43.5 14.7 39 41.8
2004-11-23 11:43:42 51°37.216 2°19.992 46.1 14.7 40 41.4
2004-11-23 11:45:02 51°37.467 2°20.331 44.7 14.7 40 41.6
2004-11-23 11:46:03 51°37.658 2°20.589 44.4 14.8 39 42.5
2004-11-23 11:47:12 51°37.872 2°20.881 45.5 15 40 41.2
2004-11-23 11:48:17 51°38.075 2°21.157 44.9 14.6 42 41.1
2004-11-23 11:49:17 51°38.264 2°21.414 44.4 15 39 42.4
2004-11-23 11:50:24 51°38.475 2°21.702 45.1 14.6 40 42.4
2004-11-23 11:51:31 51°38.685 2°21.991 45.5 14.8 40 42.6
2004-11-23 11:52:30 51°38.869 2°22.246 45.5 14.9 41 41.9
2004-11-23 11:53:43 51°39.099 2°22.56 45 14.9 39 42.6
2004-11-23 11:54:57 51°39.336 2°22.879 46 15.1 42 42.3
2004-11-23 11:55:58 51°39.527 2°23.145 44.9 14.6 41 41.8
2004-11-23 11:57:01 51°39.723 2°23.419 47.2 15 42 40.9
2004-11-23 11:58:01 51°39.906 2°23.69 49.7 15.1 44 43.2
2004-11-23 11:59:01 51°40.086 2°23.964 48.7 14.8 42 43.3
2004-11-23 12:00:17 51°40.316 2°24.314 48.5 15 44 42.8
2004-11-23 12:01:23 51°40.516 2°24.616 48.4 15 44 43
2004-11-23 12:02:21 51°40.691 2°24.881 48.3 14.9 44 42.9
2004-11-23 12:03:49 51°40.938 2°25.306 58.6 14.5 52 42.1
2004-11-23 12:04:57 51°41.104 2°25.666 59.6 14.7 54 41.7
2004-11-23 12:06:09 51°41.273 2°26.056 64.5 14.7 59 42.1
2004-11-23 12:07:27 51°41.439 2°26.498 61.8 14.6 55 41.1
2004-11-23 12:08:28 51°41.606 2°26.8 54.5 14.7 47 41.9
2004-11-23 12:09:54 51°41.844 2°27.222 55.1 14.8 49 40.9
2004-11-23 12:10:57 51°42.013 2°27.534 54.1 15 48 41.4
2004-11-23 12:12:23 51°42.253 2°27.958 53 14.9 48 40.3
2004-11-23 12:13:23 51°42.387 2°28.285 72.5 14.7 66 42.8
2004-11-23 12:14:27 51°42.444 2°28.685 92.1 14.1 85 43
2004-11-23 12:15:33 51°42.472 2°29.101 92.6 14.1 84 39.1
2004-11-23 12:16:35 51°42.5 2°29.495 91.5 14.3 82 40.5
2004-11-23 12:17:33 51°42.519 2°29.862 92.6 14.1 85 39.6
2004-11-23 12:18:35 51°42.537 2°30.253 93.4 14.2 86 39.6
2004-11-23 12:19:33 51°42.556 2°30.618 92.3 14 86 35.2
2004-11-23 12:20:42 51°42.578 2°31.052 94.1 14.1 83 40.6
2004-11-23 12:21:40 51°42.595 2°31.414 94.3 14.1 85 38.4
2004-11-23 12:22:43 51°42.597 2°31.807 100.4 14 92 39.9
2004-11-23 12:23:51 51°42.591 2°32.235 99.7 14.2 90 39.8
2004-11-23 12:24:51 51°42.59 2°32.613 99.8 14.2 95 37.4
2004-11-23 12:25:58 51°42.582 2°33.032 100.1 14.2 89 37.6
2004-11-23 12:26:55 51°42.55 2°33.38 111.1 14 98 37.8
2004-11-23 12:27:57 51°42.497 2°33.749 116.5 13.6 110 41.2
2004-11-23 12:28:57 51°42.414 2°34.081 120.1 13.3 118 42.1
2004-11-23 12:30:07 51°42.316 2°34.469 120.3 13.5 108 42.2
2004-11-23 12:31:27 51°42.208 2°34.917 119.7 13.6 107 38
2004-11-23 12:32:34 51°42.124 2°35.297 118.9 13.6 111 29.6
2004-11-23 12:33:34 51°42.043 2°35.634 120.3 13.7 107 33
2004-11-23 12:34:31 51°41.968 2°35.954 119.5 13.5 112 25.4
2004-11-23 12:35:44 51°41.875 2°36.364 118.4 13.3 111 29.5
2004-11-23 12:36:44 51°41.793 2°36.705 119.3 13.6 112 26.5
2004-11-23 12:37:45 51°41.693 2°37.033 123.5 13.4 115 31.8
2004-11-23 12:38:44 51°41.59 2°37.345 124.2 13.5 118 37.8
2004-11-23 12:39:45 51°41.488 2°37.674 124.1 13.5 119 37.1
2004-11-23 12:40:43 51°41.392 2°37.982 126.4 13 121 39.6
2004-11-23 12:41:44 51°41.284 2°38.299 126.6 13.2 120 41.1
2004-11-23 12:42:43 51°41.182 2°38.606 127.2 13.1 120 42.6
2004-11-23 12:43:44 51°41.075 2°38.925 126.6 13.4 117 42
2004-11-23 12:44:59 51°40.939 2°39.312 127.8 13.3 121 42.7
2004-11-23 12:46:13 51°40.799 2°39.685 126.9 13.4 122 42.9
2004-11-23 12:47:13 51°40.681 2°39.986 129.8 13.2 121 38.6
2004-11-23 12:48:12 51°40.553 2°40.264 134.3 13 126 38.4
2004-11-23 12:49:35 51°40.375 2°40.657 132.2 12.8 128 40
2004-11-23 12:50:36 51°40.244 2°40.947 133.6 13.3 125 33.9
2004-11-23 12:51:37 51°40.11 2°41.235 132.9 12.9 127 32.6
2004-11-23 12:52:36 51°39.98 2°41.512 132.9 13.2 130 32.4
2004-11-23 12:53:34 51°39.853 2°41.783 134.7 13.5 126 30.8
2004-11-23 12:54:41 51°39.704 2°42.088 142.1 12.7 138 27.4
2004-11-23 12:56:13 51°39.445 2°42.413 153.8 13 150 31.3
2004-11-23 12:57:13 51°39.249 2°42.512 172.8 12.9 170 32
2004-11-23 12:58:13 51°39.046 2°42.487 194.2 11.9 191 33.4
2004-11-23 12:59:23 51°38.831 2°42.311 218.6 12.7 216 31.7
2004-11-23 13:00:25 51°38.658 2°42.1 218.9 12.6 217 30.5
2004-11-23 13:02:19 51°38.333 2°41.738 217.9 12.2 218 23.9
2004-11-23 13:03:31 51°38.132 2°41.498 219 12.8 217 20.1
2004-11-23 13:05:07 51°37.867 2°41.169 219.9 12.9 218 23
2004-11-23 13:06:05 51°37.702 2°40.978 217.6 12.8 212 24.5
2004-11-23 13:07:24 51°37.483 2°40.72 216.6 12.4 214 22.8
2004-11-23 13:08:37 51°37.28 2°40.478 218.3 12.3 215 24.3
2004-11-23 13:09:39 51°37.111 2°40.275 217.5 12.5 217 27.7
2004-11-23 13:11:07 51°36.868 2°39.982 217.1 12.8 218 30.6
2004-11-23 13:12:19 51°36.669 2°39.738 218.7 12.8 215 32.5
2004-11-23 13:13:33 51°36.46 2°39.496 217.8 12.6 215 34.3
2004-11-23 13:14:57 51°36.227 2°39.215 216.1 12.5 216 35.7
2004-11-23 13:16:33 51°35.958 2°38.898 216.6 12.4 214 37.1
2004-11-23 13:17:43 51°35.762 2°38.665 214.7 12.8 214 39
2004-11-23 13:18:50 51°35.568 2°38.462 213.2 12.7 209 39.9
2004-11-23 13:20:07 51°35.343 2°38.227 214.8 12.7 214 40.4
2004-11-23 13:21:05 51°35.165 2°38.093 194.4 12.3 191 39.8
2004-11-23 13:22:26 51°34.903 2°38.257 154.7 13.2 150 41.3
2004-11-23 13:23:26 51°34.715 2°38.418 155.8 12.6 150 38.3
2004-11-23 13:24:49 51°34.519 2°38.763 128.1 13.1 122 34.5
2004-11-23 13:25:58 51°34.388 2°39.105 127.1 13.4 121 27.8
2004-11-23 13:26:59 51°34.272 2°39.408 126.8 12.8 120 25.5
2004-11-23 13:28:11 51°34.134 2°39.761 127 12.9 121 17.2
2004-11-23 13:29:37 51°33.969 2°40.178 129 13.4 126 35.5
2004-11-23 13:30:39 51°33.827 2°40.444 153.1 12.3 151 39
2004-11-23 13:32:21 51°33.476 2°40.479 188.3 12.6 189 41.9
2004-11-23 13:33:49 51°33.17 2°40.409 192.3 12.6 192 40.3
2004-11-23 13:35:13 51°32.882 2°40.312 194.3 13.1 193 38.6
2004-11-23 13:36:13 51°32.678 2°40.24 193.7 12.3 192 37.9
2004-11-23 13:37:48 51°32.353 2°40.124 196.6 12.5 194 39.4
2004-11-23 13:39:09 51°32.073 2°40.025 195.1 12.4 193 38.8
2004-11-23 13:40:10 51°31.865 2°39.949 194.9 12.5 192 40.1
2004-11-23 13:41:17 51°31.638 2°39.867 196.7 12.5 196 36.9
2004-11-23 13:42:29 51°31.396 2°39.771 193.9 12.3 194 37.5
2004-11-23 13:43:37 51°31.164 2°39.683 194.8 12.3 194 36.6
2004-11-23 13:45:02 51°30.873 2°39.57 193.6 12.8 193 39.8
2004-11-23 13:46:53 51°30.503 2°39.373 215.4 13.1 214 38.7
2004-11-23 13:48:17 51°30.273 2°39.067 223.2 12.8 222 41.7
2004-11-23 13:49:31 51°30.075 2°38.789 222.8 12.7 223 40.5
2004-11-23 13:51:17 51°29.797 2°38.374 224.3 12.8 224 38.1
2004-11-23 13:52:25 51°29.623 2°38.099 225 13.1 226 37.6
2004-11-23 13:53:33 51°29.452 2°37.809 225.8 13.3 225 37.9
2004-11-23 13:54:35 51°29.295 2°37.544 228.6 13.1 229 37.5
2004-11-23 13:55:35 51°29.143 2°37.286 227.7 13.3 224 37.3
2004-11-23 13:56:42 51°28.975 2°37 227.1 13.1 227 31
2004-11-23 13:58:09 51°28.753 2°36.633 226.5 13.6 225 29.4
2004-11-23 13:59:09 51°28.566 2°36.458 206.4 13.3 205 24.5
2004-11-23 14:00:11 51°28.345 2°36.404 184.9 13.1 184 32.2
2004-11-23 14:01:47 51°28.002 2°36.443 173.7 12.9 172 34.9
2004-11-23 14:02:53 51°27.764 2°36.513 165.7 13.6 162 35.7
2004-11-23 14:03:57 51°27.539 2°36.626 163.3 13 162 32.9
2004-11-23 14:04:57 51°27.332 2°36.735 164 13.2 163 32.7
2004-11-23 14:06:02 51°27.106 2°36.848 166.3 13 163 32.6
2004-11-23 14:07:03 51°26.909 2°37.005 156.9 12.9 155 32.3
2004-11-23 14:08:47 51°26.573 2°37.274 155.7 13.2 156 34.7
2004-11-23 14:09:47 51°26.377 2°37.427 157.1 13 157 34
2004-11-23 14:10:46 51°26.186 2°37.576 156 13.1 157 32.9
2004-11-23 14:12:14 51°25.897 2°37.793 154.8 13.1 155 32.7
2004-11-23 14:13:35 51°25.631 2°37.997 157.1 13.3 155 32.5
2004-11-23 14:14:35 51°25.434 2°38.142 156.6 13.1 154 31.6
2004-11-23 14:15:45 51°25.203 2°38.316 157.7 13.3 156 32.2
2004-11-23 14:16:43 51°25.011 2°38.461 158 13.6 153 31.1
2004-11-23 14:17:45 51°24.8 2°38.603 162.7 13.4 160 28.4
2004-11-23 14:18:45 51°24.592 2°38.712 163.3 13 161 26.5
2004-11-23 14:19:45 51°24.383 2°38.826 165 13.1 160 27.2
2004-11-23 14:20:55 51°24.139 2°38.958 164 13.4 161 25.8
2004-11-23 14:21:55 51°23.927 2°39.069 165 13.8 161 26.2
2004-11-23 14:22:55 51°23.717 2°39.176 164.7 13.5 163 27.4
2004-11-23 14:24:22 51°23.41 2°39.324 165.5 13.1 163 26.8
2004-11-23 14:25:22 51°23.198 2°39.422 168.6 13.3 167 29.6
2004-11-23 14:26:33 51°22.941 2°39.51 170.7 13.4 170 30.4
2004-11-23 14:27:41 51°22.698 2°39.588 167.8 12.8 171 29.8
2004-11-23 14:29:06 51°22.388 2°39.691 170.3 13.5 172 28.1
2004-11-23 14:30:41 51°22.042 2°39.804 168.2 13.5 169 28.8
2004-11-23 14:31:41 51°21.825 2°39.879 168.1 13 168 27.8
2004-11-23 14:32:41 51°21.609 2°39.95 169.3 13.3 171 26.8
2004-11-23 14:33:41 51°21.389 2°40.022 168.2 13.6 167 27.1
2004-11-23 14:35:27 51°21.001 2°40.151 168 13.6 169 26.1
2004-11-23 14:36:25 51°20.792 2°40.223 167.2 13.2 167 25.7
2004-11-23 14:37:27 51°20.63 2°40.446 125.6 12.9 124 27.4
2004-11-23 14:38:27 51°20.513 2°40.729 126.6 12.8 127 27.6
2004-11-23 14:39:27 51°20.397 2°41.016 120.6 12.6 118 27.7
2004-11-23 14:40:27 51°20.295 2°41.318 119 13 121 20.2
2004-11-23 14:41:45 51°20.178 2°41.723 114 13.1 114 16.7
2004-11-23 14:42:45 51°20.091 2°42.038 114.3 12.7 113 18.6
2004-11-23 14:43:53 51°19.989 2°42.388 115.3 12.8 112 23.7
2004-11-23 14:45:42 51°19.842 2°42.973 112.5 13.1 108 25.7
2004-11-23 14:46:43 51°19.76 2°43.301 112.4 13.1 113 25.2
2004-11-23 14:47:53 51°19.669 2°43.68 114.3 13 111 25
2004-11-23 14:48:53 51°19.59 2°44.001 114.4 13 116 23.6
2004-11-23 14:49:57 51°19.504 2°44.335 113 12.8 115 22.4
2004-11-23 14:50:57 51°19.424 2°44.654 110.6 13.2 108 21
2004-11-23 14:51:59 51°19.339 2°44.976 113.6 12.5 115 14.8
2004-11-23 14:52:59 51°19.262 2°45.286 112.1 12.7 111 11.9
2004-11-23 14:54:07 51°19.17 2°45.645 113.7 12.8 111 16.7
2004-11-23 14:55:07 51°19.083 2°45.958 113.4 12.8 110 19.5
2004-11-23 14:56:07 51°18.996 2°46.273 113.7 13.1 110 20.9
2004-11-23 14:57:07 51°18.915 2°46.593 113 13.2 111 20.6
2004-11-23 14:58:07 51°18.835 2°46.91 113.6 12.9 110 19.9
2004-11-23 14:59:21 51°18.733 2°47.3 113.6 12.8 111 17.6
2004-11-23 15:00:21 51°18.652 2°47.618 111.4 12.9 113 16.3
2004-11-23 15:01:21 51°18.578 2°47.934 111 12.7 109 13.8
2004-11-23 15:02:27 51°18.501 2°48.283 111.1 12.8 108 11.6
2004-11-23 15:03:27 51°18.431 2°48.596 111.5 12.3 110 9.8
2004-11-23 15:04:27 51°18.355 2°48.905 113.5 12.6 114 9.8
2004-11-23 15:05:27 51°18.285 2°49.22 110.3 12.5 109 10.3
2004-11-23 15:06:39 51°18.194 2°49.601 112.2 12.7 113 12.7
2004-11-23 15:07:39 51°18.12 2°49.92 111.3 12.7 107 13.3
2004-11-23 15:08:36 51°18.046 2°50.219 112.7 12.8 109 13
2004-11-23 15:09:39 51°17.971 2°50.555 110.9 12.9 108 12.1
2004-11-23 15:10:39 51°17.898 2°50.869 112.7 12.9 114 11.2
2004-11-23 15:11:41 51°17.82 2°51.192 112.7 12.8 113 9.7
2004-11-23 15:12:44 51°17.74 2°51.522 111.8 12.9 114 9.2
2004-11-23 15:13:43 51°17.625 2°51.8 128.4 12.4 133 9.4
2004-11-23 15:14:41 51°17.464 2°52.024 143.2 13.8 146 9.5
2004-11-23 15:15:53 51°17.206 2°52.145 164.3 13.4 167 9.6
2004-11-23 15:16:54 51°16.987 2°52.238 162.6 13.4 162 9
2004-11-23 15:17:53 51°16.775 2°52.329 164 13.5 164 9
2004-11-23 15:19:03 51°16.52 2°52.443 165.5 13.7 164 10.6
2004-11-23 15:20:03 51°16.299 2°52.541 162.5 13.5 163 11.6
2004-11-23 15:21:11 51°16.053 2°52.659 159.6 13.4 160 11.6
2004-11-23 15:22:09 51°15.843 2°52.755 160.6 13.7 156 11.2
2004-11-23 15:23:15 51°15.624 2°52.937 148.6 13.7 152 10.7
2004-11-23 15:24:21 51°15.433 2°53.113 140.5 9.7 146 10.3
2004-11-23 15:25:33 51°15.235 2°53.311 136.9 12.7 139 9.4
2004-11-23 15:26:33 51°15.095 2°53.555 130.3 11.9 132 8.7
2004-11-23 15:27:33 51°14.956 2°53.812 130.5 12.6 133 8.7
2004-11-23 15:28:36 51°14.814 2°54.083 128.2 12.5 129 8.6
2004-11-23 15:29:52 51°14.644 2°54.416 127.4 12.8 128 9.1
2004-11-23 15:31:10 51°14.484 2°54.761 121.9 12.1 124 9.8
2004-11-23 15:32:25 51°14.348 2°55.101 124.9 12.5 123 9.4
2004-11-23 15:33:25 51°14.231 2°55.318 140.5 9.9 140 9.5
2004-11-23 15:34:35 51°14.094 2°55.444 159.3 6.9 157 9.1
2004-11-23 15:35:45 51°13.947 2°55.546 158 9.3 155 9.3
2004-11-23 15:37:09 51°13.761 2°55.695 150 7.8 146 9.5
2004-11-23 15:38:17 51°13.683 2°55.842 125.5 5.5 122 9.6
2004-11-23 15:39:17 51°13.648 2°55.957 113.3 4.4 110 7.7
2004-11-23 15:40:17 51°13.629 2°56.033 123.1 3 118 7.2
2004-11-23 15:41:17 51°13.617 2°56.058 115 0.3 159 7.1